Time;durP1;ratioP1;P1;durP2;ratioP2;P2;SDS_P1;SDS_P2;PMS_P1;PMS_P2;Temp;Humidity;BMP_temperature;BMP_pressure;BME280_temperature;BME280_humidity;BME280_pressure;Samples;Min_cycle;Max_cycle;Signal;HPM_P1;HPM_P2
2022/06/27 00:00:39;;;;;;;3.55;1.73;;;19.40;99.90;;;;;;5092205;28;20016;-83
2022/06/27 00:03:04;;;;;;;3.53;1.88;;;19.40;99.90;;;;;;5091966;28;20115;-83
2022/06/27 00:05:30;;;;;;;3.53;2.40;;;19.30;99.90;;;;;;5091915;28;20051;-83
2022/06/27 00:07:56;;;;;;;2.85;2.08;;;19.40;99.90;;;;;;5091905;28;20546;-83
2022/06/27 00:10:21;;;;;;;1.95;1.85;;;19.40;99.90;;;;;;5092173;28;20054;-83
2022/06/27 00:12:47;;;;;;;2.92;2.53;;;19.40;99.90;;;;;;5093160;28;20024;-84
2022/06/27 00:15:12;;;;;;;2.17;2.08;;;19.40;99.90;;;;;;5091832;28;20032;-83
2022/06/27 00:17:39;;;;;;;2.65;2.15;;;19.40;99.90;;;;;;5092943;28;20020;-83
2022/06/27 00:20:06;;;;;;;2.17;2.00;;;19.40;99.90;;;;;;5091438;28;20024;-83
2022/06/27 00:22:32;;;;;;;3.90;1.98;;;19.30;99.90;;;;;;5091995;28;20024;-83
2022/06/27 00:24:57;;;;;;;2.83;2.58;;;19.30;99.90;;;;;;5091631;28;20016;-84
2022/06/27 00:27:23;;;;;;;3.15;2.53;;;19.20;99.90;;;;;;5092817;28;20032;-84
2022/06/27 00:29:49;;;;;;;2.50;2.30;;;19.20;99.90;;;;;;5091305;28;20078;-83
2022/06/27 00:32:16;;;;;;;2.58;2.38;;;19.10;99.90;;;;;;5092696;28;20051;-83
2022/06/27 00:34:42;;;;;;;3.17;2.20;;;19.10;99.90;;;;;;5091614;28;20131;-83
2022/06/27 00:37:08;;;;;;;4.47;2.67;;;19.00;99.90;;;;;;5092791;28;20066;-83
2022/06/27 00:39:33;;;;;;;4.72;3.05;;;19.00;99.90;;;;;;5091602;28;20020;-83
2022/06/27 00:41:59;;;;;;;2.78;2.00;;;19.00;99.90;;;;;;5091494;28;20064;-83
2022/06/27 00:44:43;;;;;;;3.33;2.13;;;19.00;99.90;;;;;;5092382;28;20067;-83
2022/06/27 00:47:14;;;;;;;3.13;2.47;;;19.00;99.90;;;;;;5091309;28;20455;-83
2022/06/27 00:49:40;;;;;;;2.85;2.65;;;18.90;99.90;;;;;;5090989;28;20067;-83
2022/06/27 00:52:11;;;;;;;2.65;2.40;;;19.00;99.90;;;;;;5091323;28;20463;-83
2022/06/27 00:54:40;;;;;;;2.60;2.40;;;19.00;99.90;;;;;;5091160;28;20055;-82
2022/06/27 00:57:06;;;;;;;4.00;2.35;;;19.00;99.90;;;;;;5091228;28;20470;-82
2022/06/27 00:59:33;;;;;;;2.95;2.65;;;19.00;99.90;;;;;;5092475;28;20043;-83
2022/06/27 01:02:01;;;;;;;4.18;2.25;;;18.90;99.90;;;;;;5092420;28;20472;-83
2022/06/27 01:04:27;;;;;;;2.72;2.53;;;19.00;99.90;;;;;;5092324;28;20075;-83
2022/06/27 01:06:52;;;;;;;2.92;2.63;;;19.00;99.90;;;;;;5092361;28;20048;-82
2022/06/27 01:09:20;;;;;;;2.58;2.22;;;18.90;99.90;;;;;;5091992;28;20036;-82
2022/06/27 01:11:45;;;;;;;2.90;2.10;;;18.90;99.90;;;;;;5091142;28;20692;-84
2022/06/27 01:14:12;;;;;;;2.45;2.25;;;18.90;99.90;;;;;;5091353;28;20031;-83
2022/06/27 01:16:39;;;;;;;7.43;2.60;;;18.90;99.90;;;;;;5092317;28;20023;-83
2022/06/27 01:19:10;;;;;;;2.67;2.47;;;18.90;99.90;;;;;;5090959;28;20383;-83
2022/06/27 01:21:40;;;;;;;5.78;2.03;;;18.80;99.90;;;;;;5092379;28;20031;-83
2022/06/27 01:24:06;;;;;;;3.70;2.47;;;18.80;99.90;;;;;;5092260;28;20028;-82
2022/06/27 01:26:32;;;;;;;2.88;2.67;;;18.80;99.90;;;;;;5090666;28;20032;-82
2022/06/27 01:28:57;;;;;;;5.57;3.17;;;18.80;99.90;;;;;;5092108;28;20111;-84
2022/06/27 01:31:24;;;;;;;3.03;2.80;;;18.80;99.90;;;;;;5090934;28;20069;-83
2022/06/27 01:33:49;;;;;;;2.85;2.60;;;18.70;99.90;;;;;;5091024;28;20022;-83
2022/06/27 01:38:59;;;;;;;4.45;2.67;;;18.70;99.90;;;;;;5092438;28;20101;-83
2022/06/27 01:41:26;;;;;;;2.60;2.40;;;18.70;99.90;;;;;;5092040;28;20099;-83
2022/06/27 01:43:52;;;;;;;5.93;2.63;;;18.70;99.90;;;;;;5090743;28;20024;-83
2022/06/27 01:46:17;;;;;;;4.85;2.33;;;18.70;99.90;;;;;;5090706;28;20016;-82
2022/06/27 01:48:43;;;;;;;2.40;2.15;;;18.60;99.90;;;;;;5090809;28;20479;-82
2022/06/27 01:51:09;;;;;;;5.70;2.78;;;18.70;99.90;;;;;;5090785;28;20062;-83
2022/06/27 01:53:36;;;;;;;2.00;1.90;;;18.70;99.90;;;;;;5091943;28;20099;-83
2022/06/27 01:56:03;;;;;;;2.67;2.47;;;18.60;99.90;;;;;;5090550;28;20021;-83
2022/06/27 01:58:29;;;;;;;2.97;2.50;;;18.70;99.90;;;;;;5090414;28;20020;-83
2022/06/27 02:00:55;;;;;;;4.15;3.05;;;18.60;99.90;;;;;;5091979;28;20098;-83
2022/06/27 02:03:23;;;;;;;2.90;2.30;;;18.60;99.90;;;;;;5090515;28;20115;-84
2022/06/27 02:05:51;;;;;;;3.47;2.40;;;18.50;99.90;;;;;;5090754;28;20126;-83
2022/06/27 02:08:22;;;;;;;2.55;2.33;;;18.50;99.90;;;;;;5094402;28;20540;-84
2022/06/27 02:10:48;;;;;;;3.10;2.33;;;18.50;99.90;;;;;;5094020;28;20031;-83
2022/06/27 02:13:14;;;;;;;6.90;3.60;;;18.50;99.90;;;;;;5095197;28;21099;-83
2022/06/27 02:16:12;;;;;;;4.03;2.30;;;18.50;99.90;;;;;;5095314;28;20103;-83
2022/06/27 02:18:39;;;;;;;2.30;2.10;;;18.50;99.90;;;;;;5094052;28;20115;-82
2022/06/27 02:21:07;;;;;;;3.03;2.70;;;18.40;99.90;;;;;;5093895;28;20020;-83
2022/06/27 02:23:33;;;;;;;5.20;3.05;;;18.40;99.90;;;;;;5095213;28;20098;-83
2022/06/27 02:25:59;;;;;;;5.65;2.85;;;18.40;99.90;;;;;;5093678;28;20453;-82
2022/06/27 02:28:27;;;;;;;3.88;2.83;;;18.30;99.90;;;;;;5093695;28;20048;-83
2022/06/27 02:30:53;;;;;;;3.85;2.63;;;18.30;99.90;;;;;;5094056;28;20034;-83
2022/06/27 02:33:19;;;;;;;2.75;2.55;;;18.30;99.90;;;;;;5094920;28;20024;-83
2022/06/27 02:35:48;;;;;;;2.70;2.50;;;18.30;99.90;;;;;;5095053;28;20104;-82
2022/06/27 02:38:16;;;;;;;3.35;2.45;;;18.20;99.90;;;;;;5093401;28;20022;-82
2022/06/27 02:40:44;;;;;;;4.65;2.60;;;18.20;99.90;;;;;;5093697;28;20028;-82
2022/06/27 02:43:13;;;;;;;3.13;2.38;;;18.10;99.90;;;;;;5094424;28;20024;-82
2022/06/27 02:45:40;;;;;;;5.40;2.58;;;18.10;99.90;;;;;;5093571;28;20097;-83
2022/06/27 02:48:07;;;;;;;2.70;2.50;;;18.10;99.90;;;;;;5092983;28;20035;-83
2022/06/27 02:50:36;;;;;;;2.45;2.25;;;18.10;99.90;;;;;;5093376;28;20032;-82
2022/06/27 02:53:09;;;;;;;3.78;2.55;;;18.10;99.90;;;;;;5093304;28;20025;-82
2022/06/27 02:55:39;;;;;;;3.83;2.35;;;18.10;99.90;;;;;;5093143;28;20431;-83
2022/06/27 02:58:09;;;;;;;7.72;3.08;;;18.00;99.90;;;;;;5094352;28;20020;-82
2022/06/27 03:00:38;;;;;;;2.40;2.20;;;18.10;99.90;;;;;;5094390;28;20024;-83
2022/06/27 03:03:06;;;;;;;3.00;2.75;;;18.00;99.90;;;;;;5093157;28;20016;-83
2022/06/27 03:05:32;;;;;;;3.58;2.60;;;18.00;99.90;;;;;;5092719;28;20525;-83
2022/06/27 03:07:58;;;;;;;2.90;2.70;;;18.00;99.90;;;;;;5092612;28;20028;-83
2022/06/27 03:10:26;;;;;;;4.68;2.80;;;18.00;99.90;;;;;;5092946;28;20024;-82
2022/06/27 03:12:51;;;;;;;11.98;4.15;;;17.90;99.90;;;;;;5092679;28;20118;-83
2022/06/27 03:15:18;;;;;;;3.38;3.00;;;17.90;99.90;;;;;;5092873;28;20119;-83
2022/06/27 03:17:43;;;;;;;3.95;2.78;;;18.00;99.90;;;;;;5091667;28;20388;-83
2022/06/27 03:20:10;;;;;;;8.93;3.30;;;17.90;99.90;;;;;;5092392;28;20027;-82
2022/06/27 03:22:35;;;;;;;3.75;3.08;;;18.00;99.90;;;;;;5092538;28;20020;-83
2022/06/27 03:25:01;;;;;;;3.42;2.47;;;18.00;99.90;;;;;;5092598;28;20024;-84
2022/06/27 03:27:27;;;;;;;4.32;2.95;;;18.00;99.90;;;;;;5092789;28;20024;-84
2022/06/27 03:29:52;;;;;;;2.90;2.60;;;18.00;99.90;;;;;;5092557;28;20032;-83
2022/06/27 03:32:18;;;;;;;4.05;3.65;;;18.10;99.90;;;;;;5093856;28;20472;-82
2022/06/27 03:34:44;;;;;;;5.47;2.83;;;18.10;99.90;;;;;;5092485;28;20127;-82
2022/06/27 03:37:09;;;;;;;5.03;2.75;;;18.10;99.90;;;;;;5093880;28;20095;-83
2022/06/27 03:39:35;;;;;;;2.95;2.65;;;18.10;99.90;;;;;;5093440;28;20051;-83
2022/06/27 03:42:00;;;;;;;7.15;3.08;;;18.20;99.90;;;;;;5092310;28;20031;-84
2022/06/27 03:44:29;;;;;;;3.10;2.90;;;18.20;99.90;;;;;;5093442;28;20042;-83
2022/06/27 03:46:54;;;;;;;3.25;2.65;;;18.30;99.90;;;;;;5092389;28;20032;-82
2022/06/27 03:52:04;;;;;;;5.28;2.80;;;18.40;99.90;;;;;;5093465;28;20170;-83
2022/06/27 03:54:30;;;;;;;3.33;2.80;;;18.40;99.90;;;;;;5091942;28;20538;-84
2022/06/27 03:56:57;;;;;;;9.30;2.63;;;18.40;99.90;;;;;;5091871;28;20016;-83
2022/06/27 03:59:23;;;;;;;4.38;3.13;;;18.40;99.90;;;;;;5093262;28;20012;-82
2022/06/27 04:01:49;;;;;;;3.05;2.75;;;18.40;99.90;;;;;;5091953;28;20027;-83
2022/06/27 04:04:14;;;;;;;2.88;2.47;;;18.50;99.90;;;;;;5091822;28;20143;-83
2022/06/27 04:06:40;;;;;;;3.67;2.90;;;18.50;99.90;;;;;;5091752;28;20035;-83
2022/06/27 04:09:06;;;;;;;2.85;2.65;;;18.50;99.90;;;;;;5091700;28;20075;-82
2022/06/27 04:11:31;;;;;;;6.18;3.78;;;18.50;99.90;;;;;;5093314;28;20366;-83
2022/06/27 04:13:57;;;;;;;3.90;2.80;;;18.50;99.90;;;;;;5091863;28;20024;-82
2022/06/27 04:16:23;;;;;;;8.05;2.83;;;18.50;99.90;;;;;;5091824;28;20016;-82
2022/06/27 04:18:48;;;;;;;3.65;3.15;;;18.60;99.90;;;;;;5091331;28;20020;-83
2022/06/27 04:21:14;;;;;;;4.63;2.50;;;18.60;99.90;;;;;;5091942;28;20065;-82
2022/06/27 04:23:40;;;;;;;4.22;3.45;;;18.70;99.90;;;;;;5091500;28;20092;-82
2022/06/27 04:26:06;;;;;;;2.80;2.55;;;18.70;99.90;;;;;;5091746;28;20032;-82
2022/06/27 04:28:32;;;;;;;4.63;3.30;;;18.70;99.90;;;;;;5090939;28;20040;-82
2022/06/27 04:30:57;;;;;;;3.28;2.97;;;18.80;99.90;;;;;;5091266;28;20371;-83
2022/06/27 04:33:23;;;;;;;3.03;2.80;;;18.80;99.90;;;;;;5091614;28;20035;-83
2022/06/27 04:35:50;;;;;;;5.65;2.75;;;18.90;99.90;;;;;;5091501;28;20024;-82
2022/06/27 04:38:19;;;;;;;7.28;2.95;;;18.90;99.90;;;;;;5092629;28;20070;-82
2022/06/27 04:40:45;;;;;;;2.42;2.20;;;19.00;99.90;;;;;;5092589;28;20110;-83
2022/06/27 04:43:10;;;;;;;4.60;2.78;;;19.10;99.90;;;;;;5091151;28;20161;-82
2022/06/27 04:45:36;;;;;;;2.60;2.38;;;19.10;99.90;;;;;;5091065;28;20052;-83
2022/06/27 04:48:05;;;;;;;12.88;8.50;;;19.20;99.90;;;;;;5091099;28;20031;-82
2022/06/27 04:50:31;;;;;;;9.32;6.07;;;19.40;99.90;;;;;;5092749;28;20028;-82
2022/06/27 04:53:00;;;;;;;3.17;2.97;;;19.40;99.90;;;;;;5090974;28;20425;-81
2022/06/27 04:55:26;;;;;;;5.85;3.55;;;19.70;99.90;;;;;;5090796;28;20436;-81
2022/06/27 04:57:52;;;;;;;4.47;3.00;;;20.10;99.90;;;;;;5095962;28;20020;-77
2022/06/27 05:00:18;;;;;;;3.97;3.47;;;20.50;99.90;;;;;;5092282;28;20051;-78
2022/06/27 05:02:44;;;;;;;4.90;3.03;;;20.80;99.90;;;;;;5091659;28;20085;-77
2022/06/27 05:05:10;;;;;;;2.75;2.35;;;20.90;99.90;;;;;;5092718;28;20101;-77
2022/06/27 05:07:35;;;;;;;5.40;2.75;;;21.10;99.90;;;;;;5091154;28;20035;-77
2022/06/27 05:10:02;;;;;;;2.95;2.40;;;21.30;99.90;;;;;;5091634;28;20032;-77
2022/06/27 05:12:27;;;;;;;5.47;3.33;;;21.50;99.90;;;;;;5091890;28;20539;-77
2022/06/27 05:14:54;;;;;;;4.80;2.45;;;21.60;99.90;;;;;;5090404;28;20040;-77
2022/06/27 05:17:21;;;;;;;3.17;2.97;;;21.60;99.90;;;;;;5091900;28;20085;-77
2022/06/27 05:19:47;;;;;;;2.30;2.10;;;;;;;;;;5091896;28;20073;-77
2022/06/27 05:22:13;;;;;;;2.88;2.60;;;22.10;99.90;;;;;;5091820;28;20379;-77
2022/06/27 05:24:39;;;;;;;4.50;2.72;;;22.20;99.90;;;;;;5091879;28;20028;-76
2022/06/27 05:27:05;;;;;;;2.35;2.15;;;22.50;99.90;;;;;;5091779;28;20455;-77
2022/06/27 05:29:31;;;;;;;2.28;2.03;;;22.40;99.90;;;;;;5090557;28;20547;-77
2022/06/27 05:31:56;;;;;;;2.78;2.58;;;22.50;99.90;;;;;;5091734;28;20016;-77
2022/06/27 05:34:22;;;;;;;4.57;1.92;;;22.70;99.90;;;;;;5091663;28;20035;-77
2022/06/27 05:36:48;;;;;;;2.45;2.03;;;22.70;99.90;;;;;;5090612;28;20372;-77
2022/06/27 05:39:14;;;;;;;4.68;2.13;;;22.70;99.90;;;;;;5090278;28;20032;-77
2022/06/27 05:41:41;;;;;;;2.75;2.38;;;22.80;99.90;;;;;;5093379;28;20028;-77
2022/06/27 05:44:07;;;;;;;2.67;2.47;;;22.90;99.90;;;;;;5095198;28;20048;-78
2022/06/27 05:46:33;;;;;;;4.68;2.80;;;22.90;99.90;;;;;;5095337;28;20067;-77
2022/06/27 05:49:01;;;;;;;3.20;2.70;;;23.10;99.90;;;;;;5095555;28;20031;-77
2022/06/27 05:51:27;;;;;;;3.65;2.83;;;23.20;99.90;;;;;;5095393;28;20052;-77
2022/06/27 05:53:52;;;;;;;3.20;2.33;;;23.40;99.90;;;;;;5095313;28;20088;-77
2022/06/27 05:56:18;;;;;;;2.40;2.20;;;23.50;99.90;;;;;;5095465;28;20028;-77
2022/06/27 05:58:44;;;;;;;3.15;2.03;;;23.80;99.90;;;;;;5095357;28;20167;-76
2022/06/27 06:01:10;;;;;;;2.47;2.03;;;24.00;99.90;;;;;;5095573;28;20463;-76
2022/06/27 06:03:37;;;;;;;6.13;2.47;;;24.00;99.90;;;;;;5095158;28;20039;-76
2022/06/27 06:06:04;;;;;;;5.07;2.28;;;24.00;99.90;;;;;;5095293;28;20016;-76
2022/06/27 06:08:31;;;;;;;3.80;2.30;;;23.90;99.90;;;;;;5094961;28;20024;-77
2022/06/27 06:10:57;;;;;;;5.53;2.45;;;24.00;99.90;;;;;;5095183;28;20035;-76
2022/06/27 06:13:25;;;;;;;3.70;2.42;;;24.20;99.90;;;;;;5093629;28;20371;-77
2022/06/27 06:15:52;;;;;;;2.20;2.00;;;24.30;99.90;;;;;;5094901;28;20081;-77
2022/06/27 06:18:18;;;;;;;2.53;2.03;;;24.40;99.90;;;;;;5095130;28;20031;-78
2022/06/27 06:20:44;;;;;;;3.03;2.72;;;24.60;99.90;;;;;;5095043;28;20099;-81
2022/06/27 06:23:10;;;;;;;2.25;1.65;;;24.80;99.90;;;;;;5094928;28;20024;-81
2022/06/27 06:25:36;;;;;;;9.93;2.38;;;24.80;99.90;;;;;;5095028;28;20048;-80
2022/06/27 06:28:03;;;;;;;3.58;2.05;;;24.90;99.90;;;;;;5093758;28;20031;-82
2022/06/27 06:30:31;;;;;;;2.30;2.00;;;25.00;99.90;;;;;;5094889;28;20035;-83
2022/06/27 06:33:02;;;;;;;2.38;2.10;;;25.10;99.90;;;;;;5094796;28;20019;-83
2022/06/27 06:35:28;;;;;;;3.03;1.80;;;25.20;99.90;;;;;;5094920;28;20020;-83
2022/06/27 06:37:53;;;;;;;2.75;1.88;;;25.20;99.90;;;;;;5093278;28;20043;-83
2022/06/27 06:40:19;;;;;;;3.40;2.50;;;25.30;99.90;;;;;;5093346;28;20455;-83
2022/06/27 06:42:45;;;;;;;6.40;2.20;;;25.30;99.90;;;;;;5093448;28;20027;-83
2022/06/27 06:45:11;;;;;;;2.13;1.85;;;25.50;99.90;;;;;;5093389;28;20020;-82
2022/06/27 06:47:47;;;;;;;2.30;1.65;;;25.60;99.90;;;;;;5094565;28;20016;-82
2022/06/27 06:50:18;;;;;;;4.03;2.25;;;25.70;99.90;;;;;;5094465;28;20047;-82
2022/06/27 06:52:46;;;;;;;2.08;1.98;;;25.70;99.90;;;;;;5094372;28;20047;-82
2022/06/27 06:55:12;;;;;;;4.07;2.13;;;25.80;99.90;;;;;;5093178;28;20035;-83
2022/06/27 06:57:38;;;;;;;2.42;2.20;;;25.80;99.90;;;;;;5094295;28;20021;-83
2022/06/27 07:00:06;;;;;;;3.80;1.98;;;25.90;99.30;;;;;;5093139;28;20030;-83
2022/06/27 07:02:32;;;;;;;2.90;2.15;;;25.90;99.10;;;;;;5092950;28;20120;-82
2022/06/27 07:04:58;;;;;;;4.18;2.38;;;25.90;99.20;;;;;;5092852;28;20052;-83
2022/06/27 07:07:25;;;;;;;6.60;3.30;;;25.90;99.30;;;;;;5094209;28;20034;-83
2022/06/27 07:09:51;;;;;;;2.67;1.90;;;26.10;98.90;;;;;;5092972;28;20036;-82
2022/06/27 07:12:18;;;;;;;4.50;2.40;;;26.20;98.50;;;;;;5092749;28;20022;-83
2022/06/27 07:14:45;;;;;;;2.13;1.88;;;26.40;99.60;;;;;;5093859;28;20016;-83
2022/06/27 07:17:11;;;;;;;6.05;2.83;;;26.50;98.70;;;;;;5092737;28;20032;-83
2022/06/27 07:19:38;;;;;;;2.47;2.10;;;26.50;97.80;;;;;;5092685;28;20013;-83
2022/06/27 07:22:06;;;;;;;3.53;2.30;;;26.60;98.00;;;;;;5092561;28;20020;-82
2022/06/27 07:24:32;;;;;;;2.95;2.63;;;26.80;98.20;;;;;;5092673;28;20085;-83
2022/06/27 07:26:59;;;;;;;2.67;2.28;;;26.90;97.50;;;;;;5092474;28;20024;-82
2022/06/27 07:29:26;;;;;;;2.30;2.10;;;26.90;97.10;;;;;;5093656;28;20178;-82
2022/06/27 07:31:53;;;;;;;2.35;2.20;;;26.90;97.20;;;;;;5092428;28;20060;-82
2022/06/27 07:34:21;;;;;;;3.38;2.33;;;27.20;98.70;;;;;;5092381;28;20035;-82
2022/06/27 07:36:47;;;;;;;3.58;2.63;;;27.40;97.50;;;;;;5093560;28;20024;-82
2022/06/27 07:39:14;;;;;;;5.00;2.63;;;27.60;96.90;;;;;;5092284;28;20033;-82
2022/06/27 07:41:40;;;;;;;3.45;2.40;;;27.90;97.50;;;;;;5093499;28;20029;-82
2022/06/27 07:44:06;;;;;;;3.65;2.47;;;28.00;95.60;;;;;;5093401;28;20892;-82
2022/06/27 07:46:34;;;;;;;4.15;2.53;;;28.10;97.00;;;;;;5092066;28;20020;-82
2022/06/27 07:49:00;;;;;;;2.67;2.45;;;28.00;94.80;;;;;;5092033;28;20038;-83
2022/06/27 07:51:26;;;;;;;4.07;2.33;;;28.00;94.70;;;;;;5093330;28;20028;-82
2022/06/27 07:53:52;;;;;;;4.28;2.10;;;27.90;95.30;;;;;;5091989;28;20050;-82
2022/06/27 07:56:20;;;;;;;2.72;2.47;;;28.00;95.50;;;;;;5091905;28;20024;-82
2022/06/27 07:58:48;;;;;;;2.25;2.05;;;28.20;94.90;;;;;;5093105;28;20367;-82
2022/06/27 08:01:15;;;;;;;4.95;2.17;;;28.50;95.30;;;;;;5091789;28;20031;-82
2022/06/27 08:03:44;;;;;;;2.70;1.95;;;28.70;93.80;;;;;;5091130;28;20047;-82
2022/06/27 08:06:15;;;;;;;3.15;1.90;;;28.70;93.10;;;;;;5091900;28;20024;-82
2022/06/27 08:08:44;;;;;;;2.30;1.75;;;28.70;93.00;;;;;;5091577;28;20024;-83
2022/06/27 08:11:16;;;;;;;2.92;2.08;;;28.80;92.80;;;;;;5091634;28;20024;-82
2022/06/27 08:13:43;;;;;;;3.25;2.45;;;28.90;92.20;;;;;;5092774;28;20065;-83
2022/06/27 08:16:14;;;;;;;4.10;2.00;;;29.00;92.50;;;;;;5091547;28;20475;-82
2022/06/27 08:18:41;;;;;;;4.22;1.95;;;29.20;92.30;;;;;;5090889;28;20444;-80
2022/06/27 08:21:10;;;;;;;10.27;2.05;;;29.30;91.30;;;;;;5092444;28;20359;-82
2022/06/27 08:23:37;;;;;;;2.47;1.70;;;29.40;90.70;;;;;;5092183;28;20016;-80
2022/06/27 08:26:06;;;;;;;2.17;1.60;;;29.60;93.40;;;;;;5091203;28;20028;-86
2022/06/27 08:28:36;;;;;;;2.65;2.17;;;29.80;90.00;;;;;;5091833;28;20114;-84
2022/06/27 08:31:07;;;;;;;2.45;1.88;;;29.80;89.50;;;;;;5092521;28;20028;-85
2022/06/27 08:33:34;;;;;;;2.72;1.90;;;29.70;89.10;;;;;;5093024;28;20024;-85
2022/06/27 08:36:01;;;;;;;2.45;1.95;;;29.80;89.20;;;;;;5092705;28;20031;-85
2022/06/27 08:38:28;;;;;;;2.85;2.47;;;29.90;90.10;;;;;;5092663;28;20052;-85
2022/06/27 08:40:55;;;;;;;2.17;1.98;;;29.90;89.40;;;;;;5092581;28;20031;-83
2022/06/27 08:43:21;;;;;;;2.72;1.70;;;29.90;89.40;;;;;;5092388;28;20034;-84
2022/06/27 08:45:47;;;;;;;5.20;2.40;;;29.90;88.60;;;;;;5092194;28;20027;-82
2022/06/27 08:48:14;;;;;;;5.90;2.35;;;30.00;89.60;;;;;;5092293;28;20024;-79
2022/06/27 08:50:42;;;;;;;1.75;1.65;;;30.00;87.50;;;;;;5090928;28;20028;-80
2022/06/27 08:53:12;;;;;;;7.15;2.15;;;30.10;89.10;;;;;;5091033;28;20432;-80
2022/06/27 08:55:42;;;;;;;2.85;1.60;;;30.20;88.20;;;;;;5090992;28;20020;-82
2022/06/27 08:58:11;;;;;;;2.45;1.83;;;30.20;88.10;;;;;;5091229;28;20020;-80
2022/06/27 09:00:41;;;;;;;4.63;1.70;;;30.20;86.40;;;;;;5090775;28;20024;-79
2022/06/27 09:03:10;;;;;;;5.80;2.05;;;30.30;86.90;;;;;;5090768;28;20028;-80
2022/06/27 09:05:36;;;;;;;3.47;1.35;;;30.30;87.30;;;;;;5091848;28;20056;-80
2022/06/27 09:08:07;;;;;;;3.78;1.77;;;30.30;85.50;;;;;;5092222;28;20024;-80
2022/06/27 09:10:37;;;;;;;3.53;2.28;;;30.40;85.50;;;;;;5092152;28;20044;-80
2022/06/27 09:13:08;;;;;;;2.90;1.80;;;30.50;86.40;;;;;;5092253;28;20430;-80
2022/06/27 09:15:46;;;;;;;4.95;1.83;;;30.50;83.90;;;;;;5090925;28;20126;-80
2022/06/27 09:18:16;;;;;;;4.13;2.05;;;30.60;84.10;;;;;;5096225;28;20031;-80
2022/06/27 09:21:03;;;;;;;3.10;1.70;;;30.60;83.20;;;;;;5096366;28;20028;-77
2022/06/27 09:23:51;;;;;;;3.72;1.42;;;30.60;82.20;;;;;;5096377;28;20073;-76
2022/06/27 09:26:30;;;;;;;4.63;1.77;;;30.70;82.10;;;;;;5096237;28;20020;-77
2022/06/27 09:29:00;;;;;;;2.65;1.52;;;30.60;81.60;;;;;;5095900;28;20071;-77
2022/06/27 09:31:28;;;;;;;3.42;2.17;;;30.70;80.20;;;;;;5096171;28;20024;-76
2022/06/27 09:34:18;;;;;;;3.03;1.40;;;30.90;81.30;;;;;;5096095;28;20009;-76
2022/06/27 09:36:53;;;;;;;3.08;1.27;;;31.00;79.20;;;;;;5082366;28;20035;-76
2022/06/27 09:39:24;;;;;;;6.50;1.98;;;31.10;79.30;;;;;;5095785;28;20391;-76
2022/06/27 09:41:58;;;;;;;2.22;1.33;;;31.10;78.50;;;;;;5094820;28;20367;-76
2022/06/27 09:44:26;;;;;;;1.95;1.85;;;31.20;76.70;;;;;;5095393;28;20028;-77
2022/06/27 09:47:01;;;;;;;1.38;1.20;;;31.30;77.50;;;;;;5094473;28;20036;-76
2022/06/27 09:49:29;;;;;;;;;;;31.30;76.60;;;;;;5095952;28;20040;-84
2022/06/27 09:51:55;;;;;;;3.05;1.85;;;31.30;78.10;;;;;;5095927;28;19954;-84
2022/06/27 09:54:23;;;;;;;2.10;1.85;;;31.30;76.00;;;;;;5094296;28;20345;-79
2022/06/27 09:56:50;;;;;;;1.30;1.23;;;31.40;74.80;;;;;;5095384;28;20024;-79
2022/06/27 09:59:16;;;;;;;4.55;1.73;;;31.40;74.90;;;;;;5095381;28;20012;-79
2022/06/27 10:01:43;;;;;;;4.80;1.60;;;31.50;75.80;;;;;;5094829;28;20028;-79
2022/06/27 10:04:10;;;;;;;2.75;1.20;;;31.50;74.80;;;;;;5095484;28;20067;-79
2022/06/27 10:06:39;;;;;;;1.70;0.80;;;31.50;72.30;;;;;;5095305;28;20019;-79
2022/06/27 10:09:08;;;;;;;2.45;1.23;;;31.50;73.50;;;;;;5093757;28;20036;-79
2022/06/27 10:11:37;;;;;;;4.95;1.48;;;31.50;75.80;;;;;;5095042;28;20023;-81
2022/06/27 10:14:21;;;;;;;2.10;1.38;;;31.60;75.30;;;;;;5094972;28;20379;-80
2022/06/27 10:17:13;;;;;;;1.20;1.10;;;31.60;73.50;;;;;;5095240;28;20021;-80
2022/06/27 10:19:59;;;;;;;4.13;1.00;;;31.80;72.90;;;;;;5095127;28;20835;-80
2022/06/27 10:22:25;;;;;;;1.55;0.98;;;31.80;71.90;;;;;;5093646;28;20454;-81
2022/06/27 10:24:50;;;;;;;2.10;1.40;;;31.70;71.90;;;;;;5093506;28;20052;-80
2022/06/27 10:27:29;;;;;;;3.78;1.35;;;31.80;71.60;;;;;;5092945;28;20067;-80
2022/06/27 10:29:55;;;;;;;3.65;1.20;;;31.90;71.70;;;;;;5093255;28;20032;-80
2022/06/27 10:32:43;;;;;;;2.75;1.23;;;31.90;70.20;;;;;;5094642;28;20020;-80
2022/06/27 10:35:10;;;;;;;1.42;1.17;;;31.90;72.40;;;;;;5093187;28;20462;-84
2022/06/27 10:37:38;;;;;;;3.33;1.42;;;31.90;72.50;;;;;;5094480;28;20020;-81
2022/06/27 10:40:19;;;;;;;4.88;1.55;;;31.90;70.50;;;;;;5093441;28;20069;-80
2022/06/27 10:42:48;;;;;;;1.85;1.23;;;32.00;70.50;;;;;;5093284;28;20020;-80
2022/06/27 10:45:20;;;;;;;2.78;1.15;;;31.90;69.90;;;;;;5094534;28;20162;-80
2022/06/27 10:47:57;;;;;;;3.42;1.20;;;31.90;70.00;;;;;;5094727;28;20032;-80
2022/06/27 10:50:25;;;;;;;2.03;1.15;;;31.90;70.10;;;;;;5093203;28;20471;-81
2022/06/27 10:53:24;;;;;;;2.85;1.38;;;32.10;69.20;;;;;;5094446;28;20455;-80
2022/06/27 10:55:49;;;;;;;8.52;1.42;;;32.10;71.20;;;;;;5094290;28;20536;-81
2022/06/27 10:58:22;;;;;;;4.25;1.20;;;32.20;69.80;;;;;;5092908;28;20020;-81
2022/06/27 11:00:49;;;;;;;1.33;1.13;;;32.40;69.70;;;;;;5094392;28;20024;-81
2022/06/27 11:03:23;;;;;;;3.17;1.30;;;32.50;70.20;;;;;;5092950;28;20468;-81
2022/06/27 11:06:00;;;;;;;;;;;32.50;69.40;;;;;;5093443;28;20135;-81
2022/06/27 11:08:26;;;;;;;4.30;1.40;;;32.60;70.80;;;;;;5092861;28;19900;-81
2022/06/27 11:10:52;;;;;;;1.63;1.20;;;32.60;69.40;;;;;;5094123;28;20055;-81
2022/06/27 11:13:51;;;;;;;3.33;1.38;;;32.70;69.00;;;;;;5093360;28;20023;-81
2022/06/27 11:16:21;;;;;;;4.18;1.50;;;32.50;69.20;;;;;;5094151;28;20418;-81
2022/06/27 11:21:51;;;;;;;3.92;1.42;;;32.40;70.40;;;;;;5094188;28;20042;-81
2022/06/27 11:24:17;;;;;;;2.72;1.40;;;32.50;71.90;;;;;;5094011;28;20035;-81
2022/06/27 11:26:48;;;;;;;3.33;1.30;;;32.50;70.80;;;;;;5094009;28;20379;-81
2022/06/27 11:32:06;;;;;;;3.33;1.85;;;32.70;71.00;;;;;;5094125;28;20051;-80
2022/06/27 11:34:35;;;;;;;3.25;2.00;;;32.80;70.70;;;;;;5093728;28;20085;-81
2022/06/27 11:37:12;;;;;;;4.60;1.88;;;32.80;71.30;;;;;;5092511;28;20165;-81
2022/06/27 11:39:38;;;;;;;2.13;1.63;;;32.90;71.40;;;;;;5092578;28;20031;-81
2022/06/27 11:42:12;;;;;;;4.75;1.50;;;32.90;71.30;;;;;;5093501;28;20020;-81
2022/06/27 11:44:59;;;;;;;2.92;1.77;;;33.00;72.30;;;;;;5093521;28;20043;-81
2022/06/27 11:47:28;;;;;;;1.92;1.52;;;33.10;72.00;;;;;;5092192;28;20123;-81
2022/06/27 11:50:02;;;;;;;2.33;1.45;;;33.20;70.90;;;;;;5092118;28;20035;-82
2022/06/27 11:52:36;;;;;;;4.20;1.60;;;33.10;71.30;;;;;;5093446;28;20016;-81
2022/06/27 11:55:24;;;;;;;3.58;1.60;;;33.00;70.10;;;;;;5092502;28;20028;-78
2022/06/27 11:57:55;;;;;;;1.52;1.42;;;32.90;71.20;;;;;;5072696;28;20040;-77
2022/06/27 12:00:26;;;;;;;3.13;1.27;;;33.00;72.90;;;;;;5072779;28;20364;-77
2022/06/27 12:03:08;;;;;;;2.38;1.30;;;33.10;69.30;;;;;;5072680;28;20032;-77
2022/06/27 12:05:35;;;;;;;3.80;1.52;;;33.10;70.10;;;;;;5071292;28;20139;-77
2022/06/27 12:08:04;;;;;;;2.63;1.50;;;33.10;69.50;;;;;;5072686;28;20020;-77
2022/06/27 12:10:38;;;;;;;2.88;1.30;;;33.10;71.80;;;;;;5072625;28;20032;-76
2022/06/27 12:13:27;;;;;;;1.45;1.08;;;33.10;70.90;;;;;;5072697;28;20032;-77
2022/06/27 12:15:59;;;;;;;1.77;1.48;;;33.20;70.00;;;;;;5070893;28;20044;-77
2022/06/27 12:18:35;;;;;;;2.58;1.40;;;33.10;69.90;;;;;;5071289;28;20039;-77
2022/06/27 12:21:01;;;;;;;1.40;1.30;;;33.20;70.40;;;;;;5072384;28;20040;-78
2022/06/27 12:23:27;;;;;;;3.78;1.55;;;33.20;70.60;;;;;;5072482;28;20024;-77
2022/06/27 12:25:52;;;;;;;3.88;1.85;;;33.30;70.20;;;;;;5072403;28;20040;-77
2022/06/27 12:28:18;;;;;;;1.92;1.20;;;33.30;67.90;;;;;;5071000;28;20024;-77
2022/06/27 12:30:44;;;;;;;3.83;1.90;;;33.30;69.40;;;;;;5072347;28;20492;-77
2022/06/27 12:33:09;;;;;;;3.35;1.10;;;33.30;68.50;;;;;;5072517;28;20076;-78
2022/06/27 12:35:35;;;;;;;1.75;1.40;;;33.30;67.50;;;;;;5072284;28;20798;-78
2022/06/27 12:38:03;;;;;;;1.63;1.20;;;33.40;68.40;;;;;;5072091;28;20484;-77
2022/06/27 12:40:29;;;;;;;2.75;1.20;;;33.30;69.60;;;;;;5072153;28;20547;-78
2022/06/27 12:42:55;;;;;;;1.38;1.20;;;33.30;70.80;;;;;;5072305;28;20036;-77
2022/06/27 12:45:21;;;;;;;4.70;1.58;;;33.40;69.10;;;;;;5072247;28;20060;-77
2022/06/27 12:47:46;;;;;;;3.28;1.90;;;33.40;69.00;;;;;;5072611;28;20060;-77
2022/06/27 12:50:13;;;;;;;7.53;1.65;;;33.40;70.30;;;;;;5070606;28;20056;-77
2022/06/27 12:52:39;;;;;;;4.15;1.48;;;33.50;70.20;;;;;;5070990;28;20375;-77
2022/06/27 12:55:05;;;;;;;1.75;1.20;;;33.40;68.40;;;;;;5072075;28;20024;-77
2022/06/27 12:57:31;;;;;;;3.83;1.25;;;33.40;69.50;;;;;;5072199;28;20047;-77
2022/06/27 12:59:56;;;;;;;1.95;1.15;;;33.50;69.90;;;;;;5072182;28;20016;-77
2022/06/27 13:02:22;;;;;;;2.60;0.88;;;33.60;67.50;;;;;;5070696;28;20016;-78
2022/06/27 13:04:48;;;;;;;3.63;1.10;;;33.70;65.50;;;;;;5072034;28;20076;-78